White Raven — WDH7263 — position and weather

sailwx.info

Track history (hours):
 
Tides and Currents Weather Stations Pressure Air Temp Water Temp Dewpoint Dewpoint Depression Visibility Wind Speed Wind Dir Waves Ship Positions

White Raven

Owner: Antles, Rickard D, Olympia, WA. More information available from US FCC via Universal Licensing System and Coast Guard Vessel Documentation Center.

Last reported at 2017-Sep-16 21:51 UTC. Time now 2017-Sep-21 23:12 UTC.
Position N 33°59' W 118°49'.

Length 13 m.

Type: Sailing vessel. MMSI: 367646460.

Date/timePositionNaut miles runAvg speedWind from/ knotsBaromVisibWave heightAir tempDewpointWater temp
2017-Sep-16 21:51N 33°59' W 118°49'3 7.9
2017-Sep-16 21:30N 33°59' W 118°52'4 7.6
2017-Sep-16 21:00N 33°59' W 118°57'4 7.7
2017-Sep-16 20:30N 33°60' W 119°01'4 7.7
2017-Sep-16 20:00N 33°60' W 119°06'4 7.8
2017-Sep-16 19:30N 34°00' W 119°11'4 8.0
2017-Sep-16 19:00N 34°01' W 119°15'4 8.2
2017-Sep-16 18:30N 34°01' W 119°20'5 7.4
2017-Sep-16 17:53N 34°00' W 119°26'3 6.9
2017-Sep-16 17:29N 34°01' W 119°29'2 0.0
2017-Sep-14 19:04N 34°02' W 119°31'1 7.1
2017-Sep-14 18:59N 34°02' W 119°32'4 6.6
2017-Sep-14 18:23N 34°03' W 119°36'3 5.8
2017-Sep-14 17:53N 34°01' W 119°39'2 3.3
2017-Sep-14 17:23N 34°01' W 119°41'0 0.1
2017-Sep-14 16:59N 34°01' W 119°41'0 0.0
2017-Sep-14 16:26N 34°01' W 119°41'0 0.0
2017-Sep-14 15:59N 34°01' W 119°41'0 0.1
2017-Sep-14 15:26N 34°01' W 119°41'0 0.0
2017-Sep-14 14:59N 34°01' W 119°41'0 0.0
2017-Sep-14 14:29N 34°01' W 119°41'0 0.1
2017-Sep-14 13:56N 34°01' W 119°41'0 0.0
2017-Sep-14 13:29N 34°01' W 119°41'0 0.0
2017-Sep-14 12:59N 34°01' W 119°41'0 0.0
2017-Sep-14 12:11N 34°01' W 119°41'0 0.0
2017-Sep-14 11:56N 34°01' W 119°41'0 0.1
2017-Sep-14 11:26N 34°01' W 119°41'0 0.1
2017-Sep-14 10:50N 34°01' W 119°41'0 0.0
2017-Sep-14 10:26N 34°01' W 119°41'0 0.1
2017-Sep-14 09:44N 34°01' W 119°41'0 0.2
2017-Sep-14 09:29N 34°01' W 119°41'0 0.0
2017-Sep-14 08:53N 34°01' W 119°41'0 0.0
2017-Sep-14 08:29N 34°01' W 119°41'0 0.1
2017-Sep-14 07:59N 34°01' W 119°41'0 0.1
2017-Sep-14 07:29N 34°01' W 119°41'0 0.0
2017-Sep-14 06:53N 34°01' W 119°41'0 0.1
2017-Sep-14 06:29N 34°01' W 119°41'0 0.0
2017-Sep-14 05:50N 34°01' W 119°41'0 0.0
2017-Sep-14 05:26N 34°01' W 119°41'0 0.1
2017-Sep-14 04:41N 34°01' W 119°41'0 0.0
2017-Sep-14 04:23N 34°01' W 119°41'0 0.0
2017-Sep-14 03:59N 34°01' W 119°41'0 0.0
2017-Sep-14 03:02N 34°01' W 119°41'0 0.0
2017-Sep-14 02:41N 34°01' W 119°41'0 0.0
2017-Sep-14 02:23N 34°01' W 119°41'0 0.0
2017-Sep-14 01:56N 34°01' W 119°41'0 0.0
2017-Sep-14 01:29N 34°01' W 119°41'0 0.0
2017-Sep-14 00:53N 34°01' W 119°41'0 0.0
2017-Sep-14 00:23N 34°01' W 119°41'0 0.0
2017-Sep-13 23:59N 34°01' W 119°41'0 0.1
2017-Sep-13 23:23N 34°01' W 119°41'0 0.0
2017-Sep-13 22:56N 34°01' W 119°41'2 3.6
2017-Sep-13 22:30N 34°02' W 119°42'4 6.1
2017-Sep-13 21:51N 34°06' W 119°42'3 8.1
2017-Sep-13 21:26N 34°10' W 119°41'4 8.0
2017-Sep-13 20:59N 34°13' W 119°41'4 7.2
2017-Sep-13 20:22N 34°18' W 119°41'3 6.2
2017-Sep-13 19:54N 34°21' W 119°40'3 6.5
2017-Sep-13 19:25N 34°24' W 119°41'1 0.0
2017-Sep-12 02:11N 34°24' W 119°41'0 0.1
2017-Sep-12 00:10N 34°24' W 119°42'0 0.0
2017-Sep-11 23:59N 34°24' W 119°42'2 4.3
2017-Sep-11 23:26N 34°23' W 119°44'3 7.4
2017-Sep-11 23:00N 34°23' W 119°48'4 7.3
2017-Sep-11 22:30N 34°23' W 119°52'4 7.1
2017-Sep-11 21:55N 34°23' W 119°57'3 6.9
2017-Sep-11 21:27N 34°22' W 120°01'4 7.0
2017-Sep-11 20:55N 34°22' W 120°06'3 7.0
2017-Sep-11 20:30N 34°22' W 120°09'4 7.1
2017-Sep-11 20:00N 34°23' W 120°14'4 7.1
2017-Sep-11 19:22N 34°24' W 120°19'3 7.0
2017-Sep-11 19:00N 34°24' W 120°22'4 6.8
2017-Sep-11 18:25N 34°24' W 120°27'3 7.0
2017-Sep-11 17:59N 34°24' W 120°30'3 7.0
2017-Sep-11 17:30N 34°24' W 120°35'3 6.5
2017-Sep-11 17:00N 34°26' W 120°38'3 6.4
2017-Sep-11 16:29N 34°27' W 120°42'3 6.5
2017-Sep-11 16:00N 34°30' W 120°44'3 6.5
2017-Sep-11 15:30N 34°32' W 120°47'3 6.5
2017-Sep-11 15:00N 34°35' W 120°50'3 6.7
2017-Sep-11 14:30N 34°37' W 120°52'3 5.4
2017-Sep-11 13:59N 34°39' W 120°54'3 5.4
2017-Sep-11 13:30N 34°42' W 120°56'3 5.3
2017-Sep-11 12:53N 34°45' W 120°57'2 6.0
2017-Sep-11 12:30N 34°47' W 120°59'3 5.2
2017-Sep-11 12:00N 34°49' W 121°00'3 5.4
2017-Sep-11 11:30N 34°51' W 121°02'3 5.7
2017-Sep-11 11:00N 34°54' W 121°04'3 6.0
2017-Sep-11 10:25N 34°57' W 121°05'3 6.0
2017-Sep-11 10:00N 34°59' W 121°07'3 6.0
2017-Sep-11 09:30N 35°02' W 121°08'3 5.8
2017-Sep-11 09:00N 35°04' W 121°10'3 6.2
2017-Sep-11 08:30N 35°07' W 121°12'3 6.7
2017-Sep-11 08:00N 35°10' W 121°14'4 6.0
2017-Sep-11 07:18N 35°14' W 121°17'21 5.2
2017-Sep-11 03:16N 35°31' W 121°31'1 4.9
2017-Sep-11 03:00N 35°32' W 121°32'4 5.6
2017-Sep-11 02:13N 35°36' W 121°34'1 4.3
2017-Sep-11 02:00N 35°37' W 121°34'9 6.1
2017-Sep-11 00:33N 35°45' W 121°38'0 6.1
2017-Sep-11 00:29N 35°46' W 121°38'3 6.5
2017-Sep-11 00:00N 35°49' W 121°40'5 7.9
2017-Sep-10 23:23N 35°53' W 121°42'3 7.9
2017-Sep-10 23:00N 35°56' W 121°44'4 7.5
2017-Sep-10 22:30N 35°59' W 121°46'4 7.1
2017-Sep-10 22:00N 36°02' W 121°49'3 6.8
2017-Sep-10 21:30N 36°05' W 121°51'4 7.1
2017-Sep-10 21:00N 36°08' W 121°53'4 7.6
2017-Sep-10 20:30N 36°11' W 121°55'4 7.3
2017-Sep-10 20:00N 36°14' W 121°57'3 6.8
2017-Sep-10 19:30N 36°17' W 121°59'4 7.4
2017-Sep-10 18:59N 36°21' W 122°00'4 7.3
2017-Sep-10 18:30N 36°25' W 122°01'4 7.0
2017-Sep-10 17:59N 36°28' W 122°02'3 7.2
2017-Sep-10 17:30N 36°32' W 122°02'4 7.2
2017-Sep-10 16:59N 36°35' W 122°02'7 5.3
2017-Sep-10 15:36N 36°37' W 121°54'1 7.6
2017-Sep-10 15:30N 36°37' W 121°53'1 1.1
2017-Sep-10 14:59N 36°36' W 121°53'0 0.0
2017-Sep-08 23:19N 36°36' W 121°53'0 0.0
2017-Sep-08 22:55N 36°36' W 121°53'0 0.0
2017-Sep-08 22:30N 36°36' W 121°53'26 7.3
2017-Sep-08 18:59N 36°56' W 122°13'23 7.6
2017-Sep-08 16:01N 37°15' W 122°28'2 7.5
2017-Sep-08 15:47N 37°17' W 122°29'2 7.5
2017-Sep-08 15:30N 37°19' W 122°29'4 7.7
2017-Sep-08 14:59N 37°23' W 122°29'4 7.8
2017-Sep-08 14:30N 37°27' W 122°29'3 6.0
2017-Sep-08 14:00N 37°30' W 122°29'0 0.3
2017-Sep-08 13:29N 37°30' W 122°29'0 0.0
2017-Sep-08 12:59N 37°30' W 122°29'0 0.0
2017-Sep-08 12:29N 37°30' W 122°29'0 0.0
2017-Sep-08 11:59N 37°30' W 122°29'0 0.0
2017-Sep-08 11:29N 37°30' W 122°29'0 0.0
2017-Sep-08 10:59N 37°30' W 122°29'0 0.0
2017-Sep-08 10:29N 37°30' W 122°29'0 0.0
2017-Sep-08 09:59N 37°30' W 122°29'0 0.0
2017-Sep-08 09:29N 37°30' W 122°29'0 0.0
2017-Sep-08 08:59N 37°30' W 122°29'0 0.0
2017-Sep-08 08:29N 37°30' W 122°29'0 0.0
2017-Sep-08 07:59N 37°30' W 122°29'0 0.0
2017-Sep-08 07:29N 37°30' W 122°29'0 0.0
2017-Sep-08 06:59N 37°30' W 122°29'0 0.0
2017-Sep-08 06:29N 37°30' W 122°29'0 0.0
2017-Sep-08 05:59N 37°30' W 122°29'0 0.0
2017-Sep-08 05:29N 37°30' W 122°29'0 0.0
2017-Sep-08 04:59N 37°30' W 122°29'0 0.0
2017-Sep-08 04:29N 37°30' W 122°29'0 0.0
2017-Sep-08 03:59N 37°30' W 122°29'0 0.0
2017-Sep-08 03:29N 37°30' W 122°29'0 0.0
2017-Sep-08 02:59N 37°30' W 122°29'0 0.0
2017-Sep-08 02:29N 37°30' W 122°29'0 0.0
2017-Sep-08 01:59N 37°30' W 122°29'0 0.0
2017-Sep-08 01:29N 37°30' W 122°29'0 0.0
2017-Sep-08 00:59N 37°30' W 122°29'0 0.0
2017-Sep-08 00:29N 37°30' W 122°29'0 0.0
2017-Sep-07 23:59N 37°30' W 122°29'0 0.0
2017-Sep-07 23:29N 37°30' W 122°29'0 0.0
2017-Sep-07 22:59N 37°30' W 122°29'0 0.0
2017-Sep-07 22:29N 37°30' W 122°29'0 0.0
2017-Sep-07 21:59N 37°30' W 122°29'0 0.0
2017-Sep-07 21:29N 37°30' W 122°29'0 0.0
2017-Sep-07 20:59N 37°30' W 122°29'0 0.0
2017-Sep-07 20:29N 37°30' W 122°29'0 0.0
2017-Sep-07 19:59N 37°30' W 122°29'0 0.0
2017-Sep-07 19:29N 37°30' W 122°29'0 0.0
2017-Sep-07 18:59N 37°30' W 122°29'0 0.0
2017-Sep-07 18:26N 37°30' W 122°29'0 0.0
2017-Sep-07 17:59N 37°30' W 122°29'0 0.0
2017-Sep-07 17:29N 37°30' W 122°29'0 0.0
2017-Sep-07 16:59N 37°30' W 122°29'0 0.0
2017-Sep-07 16:29N 37°30' W 122°29'0 0.0
2017-Sep-07 15:59N 37°30' W 122°29'0 0.0
2017-Sep-07 15:29N 37°30' W 122°29'0 0.0
2017-Sep-07 14:59N 37°30' W 122°29'0 0.0
2017-Sep-07 14:29N 37°30' W 122°29'0 0.0
2017-Sep-07 13:59N 37°30' W 122°29'0 0.0
2017-Sep-07 13:29N 37°30' W 122°29'0 0.0
2017-Sep-07 12:59N 37°30' W 122°29'0 0.0
2017-Sep-07 12:29N 37°30' W 122°29'0 0.0
2017-Sep-07 11:59N 37°30' W 122°29'0 0.0
2017-Sep-07 11:29N 37°30' W 122°29'0 0.0
2017-Sep-07 10:59N 37°30' W 122°29'0 0.0
2017-Sep-07 10:29N 37°30' W 122°29'0 0.0
2017-Sep-07 09:59N 37°30' W 122°29'0 0.0
2017-Sep-07 09:29N 37°30' W 122°29'0 0.0
2017-Sep-07 08:59N 37°30' W 122°29'0 0.0
2017-Sep-07 08:29N 37°30' W 122°29'0 0.0
2017-Sep-07 07:59N 37°30' W 122°29'0 0.0
2017-Sep-07 07:29N 37°30' W 122°29'0 0.0
2017-Sep-07 06:59N 37°30' W 122°29'0 0.0
2017-Sep-07 06:29N 37°30' W 122°29'0 0.0
2017-Sep-07 05:59N 37°30' W 122°29'0 0.0
2017-Sep-07 05:29N 37°30' W 122°29'0 0.0
2017-Sep-07 04:59N 37°30' W 122°29'0 0.0
2017-Sep-07 04:23N 37°30' W 122°29'0 0.0
2017-Sep-07 03:59N 37°30' W 122°29'0 0.0
2017-Sep-07 03:29N 37°30' W 122°29'0 0.0
2017-Sep-07 02:59N 37°30' W 122°29'0 0.0
2017-Sep-07 02:29N 37°30' W 122°29'0 0.0
2017-Sep-07 01:59N 37°30' W 122°29'0 0.0
2017-Sep-07 01:29N 37°30' W 122°29'0 0.0
2017-Sep-07 00:59N 37°30' W 122°29'0 0.0
2017-Sep-07 00:29N 37°30' W 122°29'0 0.0
2017-Sep-06 23:59N 37°30' W 122°29'0 0.0
2017-Sep-06 23:29N 37°30' W 122°29'0 0.0
2017-Sep-06 22:59N 37°30' W 122°29'0 0.2
2017-Sep-06 22:30N 37°30' W 122°29'2 3.3
2017-Sep-06 22:00N 37°30' W 122°31'  
Track history (hours):
 
Tides and Currents Weather Stations Pressure Air Temp Water Temp Dewpoint Dewpoint Depression Visibility Wind Speed Wind Dir Waves Ship Positions

White Raven

Owner: Antles, Rickard D, Olympia, WA. More information available from US FCC via Universal Licensing System and Coast Guard Vessel Documentation Center.

Last reported at 2017-Sep-16 21:51 UTC. Time now 2017-Sep-21 23:12 UTC.
Position N 33°59' W 118°49'.

Length 13 m.

Type: Sailing vessel. MMSI: 367646460.

Date/timePositionNaut miles runAvg speedWind from/ knotsBaromVisibWave heightAir tempDewpointWater temp
2017-Sep-16 21:51N 33°59' W 118°49'3 7.9
2017-Sep-16 21:30N 33°59' W 118°52'4 7.6
2017-Sep-16 21:00N 33°59' W 118°57'4 7.7
2017-Sep-16 20:30N 33°60' W 119°01'4 7.7
2017-Sep-16 20:00N 33°60' W 119°06'4 7.8
2017-Sep-16 19:30N 34°00' W 119°11'4 8.0
2017-Sep-16 19:00N 34°01' W 119°15'4 8.2
2017-Sep-16 18:30N 34°01' W 119°20'5 7.4
2017-Sep-16 17:53N 34°00' W 119°26'3 6.9
2017-Sep-16 17:29N 34°01' W 119°29'2 0.0
2017-Sep-14 19:04N 34°02' W 119°31'1 7.1
2017-Sep-14 18:59N 34°02' W 119°32'4 6.6
2017-Sep-14 18:23N 34°03' W 119°36'3 5.8
2017-Sep-14 17:53N 34°01' W 119°39'2 3.3
2017-Sep-14 17:23N 34°01' W 119°41'0 0.1
2017-Sep-14 16:59N 34°01' W 119°41'0 0.0
2017-Sep-14 16:26N 34°01' W 119°41'0 0.0
2017-Sep-14 15:59N 34°01' W 119°41'0 0.1
2017-Sep-14 15:26N 34°01' W 119°41'0 0.0
2017-Sep-14 14:59N 34°01' W 119°41'0 0.0
2017-Sep-14 14:29N 34°01' W 119°41'0 0.1
2017-Sep-14 13:56N 34°01' W 119°41'0 0.0
2017-Sep-14 13:29N 34°01' W 119°41'0 0.0
2017-Sep-14 12:59N 34°01' W 119°41'0 0.0
2017-Sep-14 12:11N 34°01' W 119°41'0 0.0
2017-Sep-14 11:56N 34°01' W 119°41'0 0.1
2017-Sep-14 11:26N 34°01' W 119°41'0 0.1
2017-Sep-14 10:50N 34°01' W 119°41'0 0.0
2017-Sep-14 10:26N 34°01' W 119°41'0 0.1
2017-Sep-14 09:44N 34°01' W 119°41'0 0.2
2017-Sep-14 09:29N 34°01' W 119°41'0 0.0
2017-Sep-14 08:53N 34°01' W 119°41'0 0.0
2017-Sep-14 08:29N 34°01' W 119°41'0 0.1
2017-Sep-14 07:59N 34°01' W 119°41'0 0.1
2017-Sep-14 07:29N 34°01' W 119°41'0 0.0
2017-Sep-14 06:53N 34°01' W 119°41'0 0.1
2017-Sep-14 06:29N 34°01' W 119°41'0 0.0
2017-Sep-14 05:50N 34°01' W 119°41'0 0.0
2017-Sep-14 05:26N 34°01' W 119°41'0 0.1
2017-Sep-14 04:41N 34°01' W 119°41'0 0.0
2017-Sep-14 04:23N 34°01' W 119°41'0 0.0
2017-Sep-14 03:59N 34°01' W 119°41'0 0.0
2017-Sep-14 03:02N 34°01' W 119°41'0 0.0
2017-Sep-14 02:41N 34°01' W 119°41'0 0.0
2017-Sep-14 02:23N 34°01' W 119°41'0 0.0
2017-Sep-14 01:56N 34°01' W 119°41'0 0.0
2017-Sep-14 01:29N 34°01' W 119°41'0 0.0
2017-Sep-14 00:53N 34°01' W 119°41'0 0.0
2017-Sep-14 00:23N 34°01' W 119°41'0 0.0
2017-Sep-13 23:59N 34°01' W 119°41'0 0.1
2017-Sep-13 23:23N 34°01' W 119°41'0 0.0
2017-Sep-13 22:56N 34°01' W 119°41'2 3.6
2017-Sep-13 22:30N 34°02' W 119°42'4 6.1
2017-Sep-13 21:51N 34°06' W 119°42'3 8.1
2017-Sep-13 21:26N 34°10' W 119°41'4 8.0
2017-Sep-13 20:59N 34°13' W 119°41'4 7.2
2017-Sep-13 20:22N 34°18' W 119°41'3 6.2
2017-Sep-13 19:54N 34°21' W 119°40'3 6.5
2017-Sep-13 19:25N 34°24' W 119°41'1 0.0
2017-Sep-12 02:11N 34°24' W 119°41'0 0.1
2017-Sep-12 00:10N 34°24' W 119°42'0 0.0
2017-Sep-11 23:59N 34°24' W 119°42'2 4.3
2017-Sep-11 23:26N 34°23' W 119°44'3 7.4
2017-Sep-11 23:00N 34°23' W 119°48'4 7.3
2017-Sep-11 22:30N 34°23' W 119°52'4 7.1
2017-Sep-11 21:55N 34°23' W 119°57'3 6.9
2017-Sep-11 21:27N 34°22' W 120°01'4 7.0
2017-Sep-11 20:55N 34°22' W 120°06'3 7.0
2017-Sep-11 20:30N 34°22' W 120°09'4 7.1
2017-Sep-11 20:00N 34°23' W 120°14'4 7.1
2017-Sep-11 19:22N 34°24' W 120°19'3 7.0
2017-Sep-11 19:00N 34°24' W 120°22'4 6.8
2017-Sep-11 18:25N 34°24' W 120°27'3 7.0
2017-Sep-11 17:59N 34°24' W 120°30'3 7.0
2017-Sep-11 17:30N 34°24' W 120°35'3 6.5
2017-Sep-11 17:00N 34°26' W 120°38'3 6.4
2017-Sep-11 16:29N 34°27' W 120°42'3 6.5
2017-Sep-11 16:00N 34°30' W 120°44'3 6.5
2017-Sep-11 15:30N 34°32' W 120°47'3 6.5
2017-Sep-11 15:00N 34°35' W 120°50'3 6.7
2017-Sep-11 14:30N 34°37' W 120°52'3 5.4
2017-Sep-11 13:59N 34°39' W 120°54'3 5.4
2017-Sep-11 13:30N 34°42' W 120°56'3 5.3
2017-Sep-11 12:53N 34°45' W 120°57'2 6.0
2017-Sep-11 12:30N 34°47' W 120°59'3 5.2
2017-Sep-11 12:00N 34°49' W 121°00'3 5.4
2017-Sep-11 11:30N 34°51' W 121°02'3 5.7
2017-Sep-11 11:00N 34°54' W 121°04'3 6.0
2017-Sep-11 10:25N 34°57' W 121°05'3 6.0
2017-Sep-11 10:00N 34°59' W 121°07'3 6.0
2017-Sep-11 09:30N 35°02' W 121°08'3 5.8
2017-Sep-11 09:00N 35°04' W 121°10'3 6.2
2017-Sep-11 08:30N 35°07' W 121°12'3 6.7
2017-Sep-11 08:00N 35°10' W 121°14'4 6.0
2017-Sep-11 07:18N 35°14' W 121°17'21 5.2
2017-Sep-11 03:16N 35°31' W 121°31'1 4.9
2017-Sep-11 03:00N 35°32' W 121°32'4 5.6
2017-Sep-11 02:13N 35°36' W 121°34'1 4.3
2017-Sep-11 02:00N 35°37' W 121°34'9 6.1
2017-Sep-11 00:33N 35°45' W 121°38'0 6.1
2017-Sep-11 00:29N 35°46' W 121°38'3 6.5
2017-Sep-11 00:00N 35°49' W 121°40'5 7.9
2017-Sep-10 23:23N 35°53' W 121°42'3 7.9
2017-Sep-10 23:00N 35°56' W 121°44'4 7.5
2017-Sep-10 22:30N 35°59' W 121°46'4 7.1
2017-Sep-10 22:00N 36°02' W 121°49'3 6.8
2017-Sep-10 21:30N 36°05' W 121°51'4 7.1
2017-Sep-10 21:00N 36°08' W 121°53'4 7.6
2017-Sep-10 20:30N 36°11' W 121°55'4 7.3
2017-Sep-10 20:00N 36°14' W 121°57'3 6.8
2017-Sep-10 19:30N 36°17' W 121°59'4 7.4
2017-Sep-10 18:59N 36°21' W 122°00'4 7.3
2017-Sep-10 18:30N 36°25' W 122°01'4 7.0
2017-Sep-10 17:59N 36°28' W 122°02'3 7.2
2017-Sep-10 17:30N 36°32' W 122°02'4 7.2
2017-Sep-10 16:59N 36°35' W 122°02'7 5.3
2017-Sep-10 15:36N 36°37' W 121°54'1 7.6
2017-Sep-10 15:30N 36°37' W 121°53'1 1.1
2017-Sep-10 14:59N 36°36' W 121°53'0 0.0
2017-Sep-08 23:19N 36°36' W 121°53'0 0.0
2017-Sep-08 22:55N 36°36' W 121°53'0 0.0
2017-Sep-08 22:30N 36°36' W 121°53'26 7.3
2017-Sep-08 18:59N 36°56' W 122°13'23 7.6
2017-Sep-08 16:01N 37°15' W 122°28'2 7.5
2017-Sep-08 15:47N 37°17' W 122°29'2 7.5
2017-Sep-08 15:30N 37°19' W 122°29'4 7.7
2017-Sep-08 14:59N 37°23' W 122°29'4 7.8
2017-Sep-08 14:30N 37°27' W 122°29'3 6.0
2017-Sep-08 14:00N 37°30' W 122°29'0 0.3
2017-Sep-08 13:29N 37°30' W 122°29'0 0.0
2017-Sep-08 12:59N 37°30' W 122°29'0 0.0
2017-Sep-08 12:29N 37°30' W 122°29'0 0.0
2017-Sep-08 11:59N 37°30' W 122°29'0 0.0
2017-Sep-08 11:29N 37°30' W 122°29'0 0.0
2017-Sep-08 10:59N 37°30' W 122°29'0 0.0
2017-Sep-08 10:29N 37°30' W 122°29'0 0.0
2017-Sep-08 09:59N 37°30' W 122°29'0 0.0
2017-Sep-08 09:29N 37°30' W 122°29'0 0.0
2017-Sep-08 08:59N 37°30' W 122°29'0 0.0
2017-Sep-08 08:29N 37°30' W 122°29'0 0.0
2017-Sep-08 07:59N 37°30' W 122°29'0 0.0
2017-Sep-08 07:29N 37°30' W 122°29'0 0.0
2017-Sep-08 06:59N 37°30' W 122°29'0 0.0
2017-Sep-08 06:29N 37°30' W 122°29'0 0.0
2017-Sep-08 05:59N 37°30' W 122°29'0 0.0
2017-Sep-08 05:29N 37°30' W 122°29'0 0.0
2017-Sep-08 04:59N 37°30' W 122°29'0 0.0
2017-Sep-08 04:29N 37°30' W 122°29'0 0.0
2017-Sep-08 03:59N 37°30' W 122°29'0 0.0
2017-Sep-08 03:29N 37°30' W 122°29'0 0.0
2017-Sep-08 02:59N 37°30' W 122°29'0 0.0
2017-Sep-08 02:29N 37°30' W 122°29'0 0.0
2017-Sep-08 01:59N 37°30' W 122°29'0 0.0
2017-Sep-08 01:29N 37°30' W 122°29'0 0.0
2017-Sep-08 00:59N 37°30' W 122°29'0 0.0
2017-Sep-08 00:29N 37°30' W 122°29'0 0.0
2017-Sep-07 23:59N 37°30' W 122°29'0 0.0
2017-Sep-07 23:29N 37°30' W 122°29'0 0.0
2017-Sep-07 22:59N 37°30' W 122°29'0 0.0
2017-Sep-07 22:29N 37°30' W 122°29'0 0.0
2017-Sep-07 21:59N 37°30' W 122°29'0 0.0
2017-Sep-07 21:29N 37°30' W 122°29'0 0.0
2017-Sep-07 20:59N 37°30' W 122°29'0 0.0
2017-Sep-07 20:29N 37°30' W 122°29'0 0.0
2017-Sep-07 19:59N 37°30' W 122°29'0 0.0
2017-Sep-07 19:29N 37°30' W 122°29'0 0.0
2017-Sep-07 18:59N 37°30' W 122°29'0 0.0
2017-Sep-07 18:26N 37°30' W 122°29'0 0.0
2017-Sep-07 17:59N 37°30' W 122°29'0 0.0
2017-Sep-07 17:29N 37°30' W 122°29'0 0.0
2017-Sep-07 16:59N 37°30' W 122°29'0 0.0
2017-Sep-07 16:29N 37°30' W 122°29'0 0.0
2017-Sep-07 15:59N 37°30' W 122°29'0 0.0
2017-Sep-07 15:29N 37°30' W 122°29'0 0.0
2017-Sep-07 14:59N 37°30' W 122°29'0 0.0
2017-Sep-07 14:29N 37°30' W 122°29'0 0.0
2017-Sep-07 13:59N 37°30' W 122°29'0 0.0
2017-Sep-07 13:29N 37°30' W 122°29'0 0.0
2017-Sep-07 12:59N 37°30' W 122°29'0 0.0
2017-Sep-07 12:29N 37°30' W 122°29'0 0.0
2017-Sep-07 11:59N 37°30' W 122°29'0 0.0
2017-Sep-07 11:29N 37°30' W 122°29'0 0.0
2017-Sep-07 10:59N 37°30' W 122°29'0 0.0
2017-Sep-07 10:29N 37°30' W 122°29'0 0.0
2017-Sep-07 09:59N 37°30' W 122°29'0 0.0
2017-Sep-07 09:29N 37°30' W 122°29'0 0.0
2017-Sep-07 08:59N 37°30' W 122°29'0 0.0
2017-Sep-07 08:29N 37°30' W 122°29'0 0.0
2017-Sep-07 07:59N 37°30' W 122°29'0 0.0
2017-Sep-07 07:29N 37°30' W 122°29'0 0.0
2017-Sep-07 06:59N 37°30' W 122°29'0 0.0
2017-Sep-07 06:29N 37°30' W 122°29'0 0.0
2017-Sep-07 05:59N 37°30' W 122°29'0 0.0
2017-Sep-07 05:29N 37°30' W 122°29'0 0.0
2017-Sep-07 04:59N 37°30' W 122°29'0 0.0
2017-Sep-07 04:23N 37°30' W 122°29'0 0.0
2017-Sep-07 03:59N 37°30' W 122°29'0 0.0
2017-Sep-07 03:29N 37°30' W 122°29'0 0.0
2017-Sep-07 02:59N 37°30' W 122°29'0 0.0
2017-Sep-07 02:29N 37°30' W 122°29'0 0.0
2017-Sep-07 01:59N 37°30' W 122°29'0 0.0
2017-Sep-07 01:29N 37°30' W 122°29'0 0.0
2017-Sep-07 00:59N 37°30' W 122°29'0 0.0
2017-Sep-07 00:29N 37°30' W 122°29'0 0.0
2017-Sep-06 23:59N 37°30' W 122°29'0 0.0
2017-Sep-06 23:29N 37°30' W 122°29'0 0.0
2017-Sep-06 22:59N 37°30' W 122°29'0 0.2
2017-Sep-06 22:30N 37°30' W 122°29'2 3.3
2017-Sep-06 22:00N 37°30' W 122°31'  

Dump ship's entire track history